Time;durP1;ratioP1;P1;durP2;ratioP2;P2;SDS_P1;SDS_P2;PMS_P1;PMS_P2;Temp;Humidity;BMP_temperature;BMP_pressure;BME280_temperature;BME280_humidity;BME280_pressure;Samples;Min_cycle;Max_cycle;Signal;HPM_P1;HPM_P2
2022/03/03 00:02:18;;;;;;;16.33;11.82;;;;;;;7.78;38.50;101933.09;5071882;28;20457;-65
2022/03/03 00:04:49;;;;;;;17.70;12.23;;;;;;;7.75;38.39;101927.88;5072566;28;20127;-65
2022/03/03 00:07:16;;;;;;;17.63;12.35;;;;;;;7.73;38.51;101935.97;5071731;28;20067;-66
2022/03/03 00:09:43;;;;;;;16.52;11.38;;;;;;;7.71;38.46;101931.59;5072004;28;20079;-65
2022/03/03 00:12:10;;;;;;;17.38;12.18;;;;;;;7.69;38.63;101936.16;5072436;28;20402;-65
2022/03/03 00:14:37;;;;;;;16.95;11.80;;;;;;;7.67;38.72;101932.66;5073893;28;20045;-65
2022/03/03 00:17:04;;;;;;;16.55;11.70;;;;;;;7.64;38.69;101939.00;5073056;28;20468;-66
2022/03/03 00:19:31;;;;;;;17.52;11.65;;;;;;;7.63;38.54;101938.16;5073119;28;20045;-66
2022/03/03 00:21:58;;;;;;;19.15;12.52;;;;;;;7.62;38.54;101939.06;5073505;28;20047;-66
2022/03/03 00:24:26;;;;;;;19.40;11.85;;;;;;;7.60;38.71;101937.41;5073842;28;20036;-66
2022/03/03 00:26:52;;;;;;;14.88;11.40;;;;;;;7.57;38.76;101937.53;5076646;28;20048;-66
2022/03/03 00:29:19;;;;;;;19.77;12.50;;;;;;;7.54;38.83;101930.50;5074860;28;20049;-65
2022/03/03 00:31:46;;;;;;;16.17;11.82;;;;;;;7.53;38.75;101930.56;5072365;28;20384;-65
2022/03/03 00:34:17;;;;;;;16.63;11.93;;;;;;;7.49;38.73;101935.16;5072797;28;20056;-65
2022/03/03 00:36:43;;;;;;;17.00;11.60;;;;;;;7.48;38.90;101927.22;5072440;28;20056;-65
2022/03/03 00:39:10;;;;;;;19.35;12.07;;;;;;;7.43;38.86;101922.06;5071651;28;20094;-66
2022/03/03 00:41:37;;;;;;;17.73;13.00;;;;;;;7.39;38.81;101912.38;5071202;28;20533;-65
2022/03/03 00:44:06;;;;;;;16.40;11.45;;;;;;;7.36;38.89;101912.50;5071394;28;20559;-65
2022/03/03 00:46:33;;;;;;;17.15;12.45;;;;;;;7.32;38.88;101910.91;5071532;28;20046;-66
2022/03/03 00:49:00;;;;;;;18.00;12.82;;;;;;;7.28;39.07;101920.84;5069830;28;20087;-66
2022/03/03 00:51:27;;;;;;;17.10;11.98;;;;;;;7.25;39.09;101920.09;5071372;28;20068;-65
2022/03/03 00:54:02;;;;;;;17.23;12.40;;;;;;;7.20;39.24;101919.41;5071219;28;20578;-65
2022/03/03 00:56:28;;;;;;;17.58;12.40;;;;;;;7.14;39.01;101922.34;5071536;28;20127;-65
2022/03/03 00:58:55;;;;;;;18.45;13.02;;;;;;;7.06;39.09;101913.75;5071385;28;20049;-65
2022/03/03 01:01:22;;;;;;;19.70;13.27;;;;;;;7.00;39.26;101920.19;5071184;28;20550;-66
2022/03/03 01:03:52;;;;;;;19.42;13.15;;;;;;;6.95;39.29;101912.38;5071426;28;20040;-65
2022/03/03 01:06:18;;;;;;;19.58;13.10;;;;;;;6.93;39.32;101911.56;5070846;28;20578;-66
2022/03/03 01:08:45;;;;;;;18.33;13.13;;;;;;;6.89;39.54;101907.28;5070896;28;20048;-65
2022/03/03 01:11:12;;;;;;;17.63;13.27;;;;;;;6.88;39.61;101908.19;5071233;28;20102;-65
2022/03/03 01:13:48;;;;;;;19.98;13.48;;;;;;;6.86;39.65;101909.19;5073657;28;20154;-67
2022/03/03 01:16:14;;;;;;;19.95;13.13;;;;;;;6.81;39.62;101904.03;5073988;28;20040;-65
2022/03/03 01:18:42;;;;;;;19.38;12.50;;;;;;;6.78;39.85;101903.28;5074615;28;20045;-66
2022/03/03 01:21:09;;;;;;;23.45;13.63;;;;;;;6.73;39.83;101903.44;5074782;28;20091;-65
2022/03/03 01:23:40;;;;;;;17.88;13.25;;;;;;;6.71;39.83;101899.09;5074759;28;20516;-65
2022/03/03 01:26:07;;;;;;;19.77;13.80;;;;;;;6.69;39.84;101900.03;5074812;28;20508;-65
2022/03/03 01:28:34;;;;;;;19.70;13.60;;;;;;;6.68;39.91;101898.25;5074844;28;20041;-66
2022/03/03 01:31:01;;;;;;;20.50;13.85;;;;;;;6.65;40.22;101898.38;5073324;28;20044;-65
2022/03/03 01:35:59;;;;;;;20.52;14.70;;;;;;;6.51;40.15;101884.69;5073568;28;20441;-65
2022/03/03 01:38:26;;;;;;;21.17;14.20;;;;;;;6.44;40.27;101877.84;5073215;28;20119;-65
2022/03/03 01:40:56;;;;;;;18.90;13.63;;;;;;;6.35;40.38;101876.38;5073378;28;20052;-65
2022/03/03 01:43:23;;;;;;;21.27;14.35;;;;;;;6.29;40.46;101886.41;5074619;28;20047;-66
2022/03/03 01:45:50;;;;;;;18.40;13.05;;;;;;;6.22;40.67;101883.09;5074727;28;20501;-65
2022/03/03 01:48:17;;;;;;;19.08;13.52;;;;;;;6.15;40.63;101873.56;5074256;28;20032;-65
2022/03/03 01:50:43;;;;;;;20.70;14.65;;;;;;;6.12;40.85;101872.81;5074447;28;20128;-65
2022/03/03 01:53:12;;;;;;;19.00;14.40;;;;;;;6.09;41.10;101872.94;5073028;28;20490;-65
2022/03/03 01:55:41;;;;;;;21.13;14.85;;;;;;;6.06;41.14;101876.56;5074354;28;20070;-64
2022/03/03 01:58:09;;;;;;;23.58;13.75;;;;;;;6.03;41.08;101880.22;5073834;28;20056;-64
2022/03/03 02:00:35;;;;;;;18.67;13.43;;;;;;;6.02;41.11;101873.16;5074433;28;20075;-65
2022/03/03 02:03:02;;;;;;;20.00;14.35;;;;;;;6.01;40.99;101867.88;5074148;28;20041;-65
2022/03/03 02:05:30;;;;;;;21.77;14.73;;;;;;;5.99;41.24;101869.72;5069629;28;20053;-65
2022/03/03 02:07:57;;;;;;;25.02;13.80;;;;;;;5.99;41.38;101862.59;5068567;28;20056;-65
2022/03/03 02:10:24;;;;;;;20.73;14.43;;;;;;;6.01;41.23;101865.19;5074299;28;20045;-65
2022/03/03 02:12:51;;;;;;;21.05;14.40;;;;;;;6.01;41.42;101867.88;5072928;28;20041;-65
2022/03/03 02:15:22;;;;;;;18.42;14.05;;;;;;;6.00;41.35;101869.66;5073814;28;20102;-66
2022/03/03 02:17:49;;;;;;;19.35;13.27;;;;;;;6.01;41.36;101865.19;5074457;28;20044;-65
2022/03/03 02:20:24;;;;;;;23.92;15.35;;;;;;;6.00;41.55;101868.78;5072475;28;20080;-65
2022/03/03 02:22:52;;;;;;;20.65;14.35;;;;;;;6.00;41.49;101866.13;5073848;28;20379;-65
2022/03/03 02:25:19;;;;;;;19.73;14.55;;;;;;;5.97;41.41;101858.25;5071928;28;20127;-65
2022/03/03 02:27:46;;;;;;;21.23;14.77;;;;;;;5.95;41.50;101862.75;5061844;28;20115;-65
2022/03/03 02:30:15;;;;;;;19.48;14.25;;;;;;;5.94;41.66;101860.97;5065738;28;20088;-65
2022/03/03 02:32:42;;;;;;;20.75;14.10;;;;;;;5.93;41.61;101852.13;5067031;28;20110;-65
2022/03/03 02:35:11;;;;;;;20.77;13.70;;;;;;;5.92;41.70;101855.72;5072218;28;20041;-66
2022/03/03 02:37:42;;;;;;;21.02;13.75;;;;;;;5.89;41.69;101855.81;5074781;28;20052;-64
2022/03/03 02:40:11;;;;;;;19.38;13.90;;;;;;;5.90;41.70;101862.88;5072465;28;20482;-65
2022/03/03 02:42:38;;;;;;;19.33;14.18;;;;;;;5.91;41.81;101853.09;5078246;28;20041;-65
2022/03/03 02:45:06;;;;;;;19.73;13.88;;;;;;;5.92;41.79;101841.50;5074591;28;20115;-65
2022/03/03 02:47:39;;;;;;;18.52;13.02;;;;;;;5.93;41.89;101838.78;5072074;28;20068;-66
2022/03/03 02:50:07;;;;;;;19.65;14.23;;;;;;;5.94;41.99;101829.00;5073574;28;20044;-64
2022/03/03 02:52:33;;;;;;;21.27;14.68;;;;;;;5.94;41.96;101831.66;5073570;28;20393;-65
2022/03/03 02:55:26;;;;;;;20.85;14.23;;;;;;;5.93;41.89;101832.59;5073639;28;20086;-65
2022/03/03 02:57:53;;;;;;;22.60;14.55;;;;;;;5.92;41.72;101837.03;5073100;28;20528;-65
2022/03/03 03:00:27;;;;;;;20.13;14.60;;;;;;;5.90;41.91;101832.69;5073236;28;20045;-65
2022/03/03 03:02:54;;;;;;;20.92;14.50;;;;;;;5.88;42.06;101832.72;5073082;28;20041;-66
2022/03/03 03:05:24;;;;;;;18.48;13.80;;;;;;;5.88;41.96;101839.84;5073192;28;20074;-65
2022/03/03 03:07:51;;;;;;;21.30;13.70;;;;;;;5.86;42.18;101842.56;5072656;28;20106;-66
2022/03/03 03:10:17;;;;;;;24.10;15.43;;;;;;;5.85;42.00;101831.94;5053208;28;20063;-65
2022/03/03 03:12:44;;;;;;;19.92;13.30;;;;;;;5.85;42.00;101826.63;5053326;28;20040;-65
2022/03/03 03:15:15;;;;;;;19.13;13.68;;;;;;;5.84;42.05;101825.75;5069321;28;20038;-65
2022/03/03 03:17:42;;;;;;;20.00;13.57;;;;;;;5.84;42.21;101825.75;5073594;28;20040;-65
2022/03/03 03:20:09;;;;;;;20.13;13.23;;;;;;;5.83;42.15;101821.34;5073929;28;20400;-65
2022/03/03 03:22:36;;;;;;;20.27;14.00;;;;;;;5.82;42.20;101818.75;5073748;28;20136;-65
2022/03/03 03:25:10;;;;;;;18.98;14.18;;;;;;;5.80;42.32;101823.25;5072642;28;20383;-65
2022/03/03 03:27:38;;;;;;;20.33;13.25;;;;;;;5.80;42.28;101818.78;5073963;28;20124;-65
2022/03/03 03:30:08;;;;;;;19.98;13.20;;;;;;;5.77;42.05;101815.38;5073310;28;20060;-65
2022/03/03 03:32:36;;;;;;;19.73;13.35;;;;;;;5.76;42.24;101817.16;5073506;28;20494;-65
2022/03/03 03:35:07;;;;;;;25.23;13.75;;;;;;;5.73;42.20;101815.47;5075334;28;20124;-65
2022/03/03 03:37:36;;;;;;;20.55;13.55;;;;;;;5.70;42.43;101818.25;5071183;28;20406;-65
2022/03/03 03:40:07;;;;;;;21.38;13.88;;;;;;;5.67;42.39;101810.38;5073488;28;20106;-65
2022/03/03 03:42:34;;;;;;;18.65;13.55;;;;;;;5.67;42.29;101810.38;5073236;28;20379;-65
2022/03/03 03:45:03;;;;;;;17.27;12.70;;;;;;;5.67;42.31;101799.69;5073106;28;20115;-65
2022/03/03 03:47:31;;;;;;;20.83;13.32;;;;;;;5.68;42.30;101800.56;5071870;28;20036;-64
2022/03/03 03:50:02;;;;;;;18.05;13.13;;;;;;;5.67;42.25;101806.81;5072997;28;20116;-65
2022/03/03 03:52:30;;;;;;;19.13;12.98;;;;;;;5.65;42.31;101809.53;5072820;28;20080;-65
2022/03/03 03:54:57;;;;;;;18.50;13.13;;;;;;;5.64;42.49;101801.59;5072756;28;20052;-65
2022/03/03 03:57:24;;;;;;;19.17;13.85;;;;;;;5.61;42.34;101797.25;5072470;28;20486;-65
2022/03/03 03:59:51;;;;;;;19.67;13.05;;;;;;;5.61;42.34;101804.38;5072306;28;20045;-65
2022/03/03 04:02:18;;;;;;;19.13;13.13;;;;;;;5.60;42.46;101799.97;5072760;28;20079;-65
2022/03/03 04:04:49;;;;;;;19.90;13.43;;;;;;;5.58;42.45;101805.34;5072759;28;20040;-65
2022/03/03 04:07:16;;;;;;;21.77;14.38;;;;;;;5.58;42.42;101802.69;5072161;28;20057;-65
2022/03/03 04:09:42;;;;;;;19.55;13.73;;;;;;;5.58;42.47;101799.16;5071161;28;20071;-65
2022/03/03 04:12:09;;;;;;;24.25;14.20;;;;;;;5.58;42.61;101799.16;5072446;28;20398;-65
2022/03/03 04:14:37;;;;;;;19.65;13.73;;;;;;;5.57;42.55;101800.94;5071437;28;20052;-65
2022/03/03 04:17:04;;;;;;;19.08;14.00;;;;;;;5.58;42.69;101789.38;5072363;28;20478;-65
2022/03/03 04:19:31;;;;;;;20.10;14.15;;;;;;;5.57;42.49;101803.63;5072110;28;20048;-65
2022/03/03 04:21:57;;;;;;;21.80;14.43;;;;;;;5.56;42.72;101801.88;5072116;28;20395;-65
2022/03/03 04:24:27;;;;;;;20.85;13.25;;;;;;;5.54;42.63;101789.53;5072233;28;20050;-65
2022/03/03 04:26:54;;;;;;;18.77;13.55;;;;;;;5.46;42.65;101795.13;5072252;28;20029;-65
2022/03/03 04:29:21;;;;;;;22.13;14.73;;;;;;;5.41;42.62;101795.28;5071863;28;20123;-65
2022/03/03 04:31:49;;;;;;;23.40;14.57;;;;;;;5.36;42.64;101791.91;5071803;28;20064;-65
2022/03/03 04:34:19;;;;;;;20.27;13.63;;;;;;;5.33;42.78;101789.34;5072309;28;20041;-64
2022/03/03 04:36:46;;;;;;;21.60;14.25;;;;;;;5.30;42.87;101786.81;5071725;28;20056;-65
2022/03/03 04:39:14;;;;;;;20.73;13.40;;;;;;;5.28;42.85;101778.00;5070462;28;20411;-65
2022/03/03 04:41:41;;;;;;;20.23;14.07;;;;;;;5.28;42.81;101780.66;5071913;28;20063;-65
2022/03/03 04:44:08;;;;;;;19.90;13.57;;;;;;;5.30;42.94;101781.47;5070828;28;20040;-65
2022/03/03 04:46:35;;;;;;;23.58;15.55;;;;;;;5.31;43.12;101774.34;5072797;28;20040;-65
2022/03/03 04:49:03;;;;;;;21.85;13.95;;;;;;;5.31;42.94;101774.34;5076039;28;20136;-65
2022/03/03 04:51:30;;;;;;;22.35;14.43;;;;;;;5.31;42.97;101785.00;5076192;28;20124;-64
2022/03/03 04:54:00;;;;;;;20.13;13.60;;;;;;;5.29;43.14;101778.88;5054607;28;20049;-65
2022/03/03 04:56:27;;;;;;;19.98;14.27;;;;;;;5.25;42.92;101786.09;5055992;28;20087;-65
2022/03/03 04:58:53;;;;;;;20.98;13.95;;;;;;;5.22;43.10;101777.31;5055592;28;20059;-65
2022/03/03 05:01:20;;;;;;;21.25;13.90;;;;;;;5.16;42.98;101774.84;5055590;28;20099;-64
2022/03/03 05:03:53;;;;;;;22.50;13.95;;;;;;;5.11;43.22;101772.34;5075751;28;20143;-65
2022/03/03 05:06:20;;;;;;;21.63;14.02;;;;;;;5.08;43.28;101773.31;5076020;28;20060;-65
2022/03/03 05:08:47;;;;;;;21.30;14.18;;;;;;;5.05;43.15;101776.06;5075595;28;20032;-65
2022/03/03 05:11:13;;;;;;;20.33;13.57;;;;;;;5.02;43.33;101772.66;5075657;28;20123;-65
2022/03/03 05:13:43;;;;;;;19.50;14.40;;;;;;;5.00;43.34;101779.81;5076023;28;20124;-65
2022/03/03 05:16:10;;;;;;;21.80;13.50;;;;;;;4.97;43.28;101775.47;5074472;28;20039;-66
2022/03/03 05:18:37;;;;;;;23.40;14.98;;;;;;;4.95;43.47;101782.63;5074938;28;20048;-67
2022/03/03 05:21:03;;;;;;;20.42;14.50;;;;;;;4.95;43.30;101781.75;5075374;28;20051;-64
2022/03/03 05:23:37;;;;;;;22.35;14.48;;;;;;;4.93;43.43;101776.47;5075880;28;20040;-65
2022/03/03 05:26:04;;;;;;;22.55;14.63;;;;;;;4.92;43.45;101780.06;5075122;28;20095;-65
2022/03/03 05:28:30;;;;;;;20.83;14.75;;;;;;;4.91;43.65;101777.44;5073971;28;20041;-65
2022/03/03 05:30:57;;;;;;;21.17;15.15;;;;;;;4.90;43.41;101778.38;5075083;28;20087;-65
2022/03/03 05:33:45;;;;;;;24.05;14.95;;;;;;;4.89;43.61;101776.63;5075052;28;20098;-65
2022/03/03 05:36:12;;;;;;;21.67;14.20;;;;;;;4.92;43.61;101777.41;5075331;28;20033;-64
2022/03/03 05:38:38;;;;;;;22.95;14.45;;;;;;;4.93;43.55;101773.81;5074763;28;20043;-64
2022/03/03 05:41:06;;;;;;;21.42;14.50;;;;;;;4.96;43.69;101773.72;5075142;28;20048;-65
2022/03/03 05:43:38;;;;;;;21.75;14.15;;;;;;;4.98;43.63;101763.88;5074868;28;20044;-66
2022/03/03 05:46:05;;;;;;;21.70;13.75;;;;;;;4.98;43.58;101768.34;5074564;28;20049;-64
2022/03/03 05:48:32;;;;;;;22.60;15.02;;;;;;;4.99;43.66;101770.09;5075284;28;20082;-65
2022/03/03 05:50:59;;;;;;;20.70;13.80;;;;;;;4.98;43.68;101771.00;5074966;28;20112;-65
2022/03/03 05:53:26;;;;;;;19.17;13.85;;;;;;;5.00;43.64;101777.16;5074938;28;20049;-65
2022/03/03 05:56:06;;;;;;;20.70;14.32;;;;;;;5.01;43.67;101779.75;5055815;28;20444;-65
2022/03/03 05:58:45;;;;;;;24.42;15.77;;;;;;;5.02;43.92;101781.50;5074170;28;20045;-65
2022/03/03 06:01:14;;;;;;;24.58;16.13;;;;;;;5.04;43.69;101778.78;5075857;28;20068;-64
2022/03/03 06:03:50;;;;;;;21.90;14.27;;;;;;;5.04;43.65;101778.78;5075846;28;20032;-64
2022/03/03 06:06:25;;;;;;;21.75;14.32;;;;;;;5.03;43.61;101777.91;5075702;28;20032;-64
2022/03/03 06:08:55;;;;;;;24.00;15.13;;;;;;;5.02;43.69;101781.50;5075559;28;20115;-65
2022/03/03 06:11:25;;;;;;;22.48;14.95;;;;;;;4.97;43.73;101770.13;5079093;28;20355;-65
2022/03/03 06:14:03;;;;;;;23.05;14.55;;;;;;;4.96;43.77;101770.19;5072276;28;20041;-65
2022/03/03 06:16:31;;;;;;;22.90;14.57;;;;;;;4.94;43.61;101769.38;5063403;28;20494;-65
2022/03/03 06:18:59;;;;;;;24.00;15.63;;;;;;;4.90;43.66;101779.25;5072743;28;20044;-65
2022/03/03 06:21:26;;;;;;;21.40;15.02;;;;;;;4.85;43.78;101777.66;5073870;28;20483;-65
2022/03/03 06:23:53;;;;;;;22.58;15.50;;;;;;;4.82;43.75;101773.31;5067649;28;20047;-65
2022/03/03 06:26:20;;;;;;;24.98;15.48;;;;;;;4.78;43.78;101775.19;5060709;28;20060;-64
2022/03/03 06:28:47;;;;;;;20.92;14.85;;;;;;;4.75;43.87;101767.31;5068818;28;20045;-65
2022/03/03 06:31:14;;;;;;;25.23;15.50;;;;;;;4.74;43.75;101772.69;5069712;28;20076;-65
2022/03/03 06:33:44;;;;;;;24.67;15.45;;;;;;;4.72;43.90;101774.53;5057873;28;20040;-65
2022/03/03 06:36:11;;;;;;;26.83;14.85;;;;;;;4.72;44.14;101779.84;5074282;28;20053;-65
2022/03/03 06:38:38;;;;;;;23.52;14.95;;;;;;;4.71;44.00;101783.41;5074145;28;20040;-64
2022/03/03 06:41:05;;;;;;;24.70;15.52;;;;;;;4.71;43.85;101789.63;5073966;28;20063;-65
2022/03/03 06:43:35;;;;;;;24.63;15.85;;;;;;;4.72;44.16;101791.34;5074157;28;20048;-65
2022/03/03 06:46:03;;;;;;;23.92;15.52;;;;;;;4.74;44.10;101785.97;5074332;28;20066;-73
2022/03/03 06:48:30;;;;;;;24.20;15.60;;;;;;;4.76;44.15;101789.47;5074345;28;20044;-71
2022/03/03 06:51:02;;;;;;;26.60;15.93;;;;;;;4.77;44.22;101791.22;5074301;28;20067;-71
2022/03/03 06:53:37;;;;;;;23.05;16.17;;;;;;;4.78;44.14;101795.63;5073998;28;20072;-73
2022/03/03 06:56:06;;;;;;;22.80;15.98;;;;;;;4.78;44.30;101791.16;5073762;28;20032;-71
2022/03/03 06:58:34;;;;;;;21.90;16.02;;;;;;;4.79;44.35;101792.03;5073457;28;20075;-71
2022/03/03 07:01:05;;;;;;;25.33;15.68;;;;;;;4.79;44.23;101798.22;5073937;28;20068;-71
2022/03/03 07:03:34;;;;;;;27.48;16.67;;;;;;;4.81;44.46;101799.97;5072607;28;20045;-71
2022/03/03 07:06:02;;;;;;;25.30;16.25;;;;;;;4.81;44.29;101798.16;5073796;28;20080;-71
2022/03/03 07:08:31;;;;;;;26.48;17.15;;;;;;;4.79;44.37;101800.00;5074192;28;20040;-71
2022/03/03 07:10:58;;;;;;;25.88;16.30;;;;;;;4.77;44.51;101801.84;5073309;28;20130;-71
2022/03/03 07:13:25;;;;;;;28.08;16.52;;;;;;;4.76;44.51;101803.66;5072343;28;20162;-72
2022/03/03 07:15:55;;;;;;;30.23;16.45;;;;;;;4.77;44.55;101804.50;5072703;28;20086;-71
2022/03/03 07:18:33;;;;;;;27.02;16.13;;;;;;;4.80;44.71;101804.41;5072553;28;20041;-71
2022/03/03 07:21:10;;;;;;;27.77;16.38;;;;;;;4.82;44.89;101791.94;5079921;28;20047;-73
2022/03/03 07:23:49;;;;;;;25.42;15.73;;;;;;;4.87;44.75;101795.31;5074093;28;20556;-71
2022/03/03 07:26:17;;;;;;;29.13;16.95;;;;;;;4.94;44.71;101798.66;5071371;28;20045;-71
2022/03/03 07:28:50;;;;;;;26.50;15.82;;;;;;;5.03;45.11;101804.53;5072799;28;20394;-70
2022/03/03 07:31:22;;;;;;;25.58;15.35;;;;;;;5.18;45.17;101800.50;5077745;28;20040;-71
2022/03/03 07:33:59;;;;;;;28.05;14.75;;;;;;;5.36;45.35;101809.69;5071956;28;20425;-71
2022/03/03 07:36:29;;;;;;;20.63;13.98;;;;;;;5.54;45.37;101803.72;5071170;28;20098;-71
2022/03/03 07:39:01;;;;;;;23.15;13.98;;;;;;;5.76;45.26;101798.50;5071930;28;20552;-71
2022/03/03 07:41:28;;;;;;;23.88;14.35;;;;;;;5.98;45.55;101799.53;5070996;28;20437;-71
2022/03/03 07:44:00;;;;;;;22.98;14.88;;;;;;;6.20;45.38;101799.59;5070980;28;20071;-71
2022/03/03 07:46:27;;;;;;;21.58;14.55;;;;;;;6.42;45.36;101801.44;5072292;28;20037;-71
2022/03/03 07:48:55;;;;;;;21.80;14.07;;;;;;;6.64;45.25;101807.69;5070691;28;20106;-71
2022/03/03 07:51:23;;;;;;;20.98;13.93;;;;;;;6.84;45.24;101807.78;5071577;28;20410;-71
2022/03/03 07:53:50;;;;;;;23.80;14.32;;;;;;;7.04;45.17;101806.97;5072040;28;20041;-72
2022/03/03 07:56:31;;;;;;;22.17;14.38;;;;;;;7.24;44.83;101799.00;5072249;28;20048;-71
2022/03/03 07:59:02;;;;;;;23.30;13.10;;;;;;;7.42;44.68;101815.19;5072236;28;20040;-71
2022/03/03 08:01:30;;;;;;;20.45;13.40;;;;;;;7.58;44.60;101811.81;5070535;28;20076;-71
2022/03/03 08:04:01;;;;;;;21.90;13.38;;;;;;;7.80;44.48;101810.88;5072182;28;20483;-71
2022/03/03 08:06:30;;;;;;;22.98;13.40;;;;;;;8.00;44.28;101813.53;5070699;28;20052;-71
2022/03/03 08:08:59;;;;;;;20.02;13.27;;;;;;;8.19;44.03;101816.28;5071821;28;20036;-70
2022/03/03 08:11:27;;;;;;;19.98;13.50;;;;;;;8.43;43.95;101820.53;5071688;28;20068;-71
2022/03/03 08:13:58;;;;;;;18.90;13.35;;;;;;;8.66;43.71;101811.41;5071712;28;20029;-71
2022/03/03 08:16:26;;;;;;;21.38;13.48;;;;;;;8.88;43.63;101817.47;5071609;28;20487;-70
2022/03/03 08:18:57;;;;;;;17.80;12.60;;;;;;;9.10;43.44;101811.09;5071892;28;20045;-71
2022/03/03 08:21:24;;;;;;;21.13;12.80;;;;;;;9.29;43.11;101819.06;5071464;28;20136;-70
2022/03/03 08:24:00;;;;;;;19.10;12.75;;;;;;;9.47;42.84;101816.34;5071425;28;20525;-71
2022/03/03 08:26:27;;;;;;;26.02;13.95;;;;;;;9.65;42.59;101816.34;5071507;28;20048;-72
2022/03/03 08:28:53;;;;;;;20.70;13.35;;;;;;;9.84;42.60;101820.69;5071259;28;20036;-72
2022/03/03 08:31:28;;;;;;;20.55;13.25;;;;;;;10.05;42.21;101816.00;5071205;28;20075;-71
2022/03/03 08:34:12;;;;;;;20.05;13.68;;;;;;;10.26;42.09;101810.44;5071390;28;20352;-72
2022/03/03 08:36:49;;;;;;;17.15;12.23;;;;;;;10.46;41.90;101811.13;5071366;28;20051;-72
2022/03/03 08:39:18;;;;;;;20.95;12.95;;;;;;;10.63;41.74;101812.88;5070986;28;20120;-72
2022/03/03 08:41:45;;;;;;;19.90;13.43;;;;;;;10.76;41.64;101813.91;5070981;28;20071;-72
2022/03/03 08:44:34;;;;;;;19.17;12.90;;;;;;;10.97;41.58;101811.81;5071382;28;20505;-72
2022/03/03 08:47:03;;;;;;;21.98;13.13;;;;;;;11.18;41.23;101814.25;5070987;28;20402;-72
2022/03/03 08:49:40;;;;;;;16.98;12.50;;;;;;;11.35;40.96;101809.63;5071044;28;20068;-72
2022/03/03 08:52:09;;;;;;;20.50;12.98;;;;;;;11.53;40.82;101813.03;5069620;28;20084;-73
2022/03/03 08:54:39;;;;;;;21.33;12.80;;;;;;;11.71;40.62;101806.56;5070143;28;20478;-73
2022/03/03 08:57:06;;;;;;;18.38;12.88;;;;;;;11.90;40.65;101802.81;5070981;28;20522;-71
2022/03/03 08:59:33;;;;;;;16.83;12.43;;;;;;;12.01;40.24;101806.56;5070407;28;20099;-71
2022/03/03 09:02:00;;;;;;;16.73;11.52;;;;;;;12.13;39.91;101810.31;5070081;28;20139;-72
2022/03/03 09:04:28;;;;;;;20.60;12.52;;;;;;;12.20;39.52;101813.50;5070882;28;20043;-71
2022/03/03 09:06:55;;;;;;;16.35;11.85;;;;;;;12.22;39.48;101804.38;5071251;28;20111;-72
2022/03/03 09:09:22;;;;;;;16.27;11.35;;;;;;;12.33;39.35;101803.69;5071034;28;20068;-71
2022/03/03 09:11:48;;;;;;;17.73;11.27;;;;;;;12.40;39.17;101805.03;5070137;28;20044;-72
2022/03/03 09:14:19;;;;;;;17.60;11.57;;;;;;;12.49;38.97;101796.38;5071883;28;20041;-71
2022/03/03 09:16:46;;;;;;;15.20;11.82;;;;;;;12.56;39.05;101803.09;5071152;28;20040;-72
2022/03/03 09:19:12;;;;;;;16.58;11.05;;;;;;;12.62;38.56;101797.31;5070989;28;20066;-72
2022/03/03 09:21:40;;;;;;;16.45;11.00;;;;;;;12.69;38.16;101793.28;5070983;28;20047;-71
2022/03/03 09:24:10;;;;;;;16.80;11.55;;;;;;;12.80;38.14;101797.09;5071510;28;20406;-72
2022/03/03 09:26:37;;;;;;;16.20;11.07;;;;;;;12.90;37.97;101798.22;5070776;28;20064;-71
2022/03/03 09:29:05;;;;;;;15.27;11.40;;;;;;;13.01;37.83;101795.69;5071427;28;20040;-71
2022/03/03 09:31:32;;;;;;;16.25;11.00;;;;;;;13.09;37.64;101792.50;5072031;28;20098;-72
2022/03/03 09:33:59;;;;;;;16.83;11.85;;;;;;;13.18;37.46;101797.28;5073320;28;20047;-71
2022/03/03 09:36:26;;;;;;;16.50;12.48;;;;;;;13.28;37.34;101793.88;5075144;28;20041;-70
2022/03/03 09:38:52;;;;;;;15.98;11.02;;;;;;;13.40;37.12;101796.75;5075432;28;20119;-70
2022/03/03 09:41:19;;;;;;;17.02;11.55;;;;;;;13.46;36.92;101788.25;5073212;28;20419;-71
2022/03/03 09:43:46;;;;;;;19.40;11.98;;;;;;;13.51;37.16;101786.09;5073720;28;20028;-71
2022/03/03 09:46:13;;;;;;;16.45;10.52;;;;;;;13.57;36.72;101793.75;5074471;28;20060;-70
2022/03/03 09:48:40;;;;;;;15.68;11.02;;;;;;;13.64;36.72;101782.44;5074406;28;20533;-70
2022/03/03 09:51:06;;;;;;;16.75;11.45;;;;;;;13.76;36.76;101780.72;5090057;28;20119;-70
2022/03/03 09:53:39;;;;;;;19.38;11.25;;;;;;;13.88;36.26;101774.47;5073403;28;20063;-71
2022/03/03 09:56:06;;;;;;;16.02;11.07;;;;;;;14.00;36.29;101772.72;5074468;28;20040;-71
2022/03/03 09:58:32;;;;;;;16.52;11.60;;;;;;;14.10;36.23;101772.94;5074267;28;20041;-70
2022/03/03 10:00:59;;;;;;;20.55;12.32;;;;;;;14.19;36.02;101780.44;5074023;28;20570;-71
2022/03/03 10:03:35;;;;;;;17.67;11.40;;;;;;;14.28;35.67;101769.81;5074333;28;20043;-71
2022/03/03 10:06:01;;;;;;;15.80;11.70;;;;;;;14.36;35.67;101769.28;5074332;28;20048;-71
2022/03/03 10:08:30;;;;;;;15.90;10.93;;;;;;;14.41;35.29;101764.41;5073823;28;20120;-71
2022/03/03 10:11:02;;;;;;;15.98;10.55;;;;;;;14.46;35.33;101764.09;5073505;28;20118;-71
2022/03/03 10:13:52;;;;;;;15.27;11.55;;;;;;;14.48;34.85;101762.16;5073776;28;20051;-72
2022/03/03 10:16:26;;;;;;;17.10;11.00;;;;;;;14.55;34.95;101768.81;5074416;28;20048;-71
2022/03/03 10:19:03;;;;;;;15.07;10.27;;;;;;;14.59;34.52;101773.03;5070969;28;20041;-71
2022/03/03 10:21:37;;;;;;;16.25;10.88;;;;;;;14.63;34.33;101772.69;5055951;28;20412;-71
2022/03/03 10:24:24;;;;;;;14.27;10.30;;;;;;;14.69;34.36;101770.50;5054905;28;20499;-71
2022/03/03 10:26:59;;;;;;;15.43;10.38;;;;;;;14.78;34.15;101776.09;5055612;28;20048;-71
2022/03/03 10:29:27;;;;;;;16.73;10.77;;;;;;;14.85;34.42;101761.16;5058820;28;20095;-72
2022/03/03 10:31:55;;;;;;;13.57;11.10;;;;;;;14.96;34.29;101767.63;5075305;28;20044;-71
2022/03/03 10:34:34;;;;;;;13.02;10.45;;;;;;;15.03;34.06;101772.47;5077312;28;20044;-72
2022/03/03 10:37:03;;;;;;;15.25;10.75;;;;;;;15.11;33.78;101763.78;5073462;28;20513;-72
2022/03/03 10:39:45;;;;;;;16.10;11.55;;;;;;;15.18;33.48;101767.75;5073886;28;20084;-71
2022/03/03 10:42:23;;;;;;;15.13;11.00;;;;;;;15.26;33.24;101776.13;5073754;28;20040;-70
2022/03/03 10:45:06;;;;;;;15.20;10.70;;;;;;;15.32;33.38;101764.84;5073130;28;20098;-71
2022/03/03 10:47:33;;;;;;;17.23;11.10;;;;;;;15.33;33.04;101763.88;5072487;28;20041;-71
2022/03/03 10:50:00;;;;;;;16.05;11.15;;;;;;;15.33;32.78;101763.88;5072979;28;20218;-71
2022/03/03 10:52:31;;;;;;;14.88;10.63;;;;;;;15.35;32.72;101764.63;5072715;28;20059;-71
2022/03/03 10:55:05;;;;;;;12.70;10.40;;;;;;;15.43;32.48;101759.47;5073089;28;20032;-72
2022/03/03 10:57:52;;;;;;;14.90;10.45;;;;;;;15.52;32.59;101752.47;5071300;28;20044;-70
2022/03/03 11:00:23;;;;;;;16.15;10.65;;;;;;;15.63;32.60;101755.28;5072145;28;20040;-71
2022/03/03 11:02:52;;;;;;;14.43;10.15;;;;;;;15.71;32.12;101760.97;5072649;28;20043;-70
2022/03/03 11:05:21;;;;;;;14.77;10.32;;;;;;;15.77;32.13;101749.66;5071067;28;20106;-71
2022/03/03 11:07:49;;;;;;;16.70;11.50;;;;;;;15.83;32.07;101754.59;5072751;28;20042;-69
2022/03/03 11:10:19;;;;;;;15.02;10.23;;;;;;;15.92;31.69;101750.28;5054685;28;20513;-70
2022/03/03 11:12:47;;;;;;;18.27;10.65;;;;;;;16.02;31.71;101747.72;5073005;28;20041;-71
2022/03/03 11:15:21;;;;;;;12.50;9.52;;;;;;;16.13;31.21;101736.88;5072604;28;20123;-70
2022/03/03 11:17:49;;;;;;;13.85;9.85;;;;;;;16.19;31.14;101739.94;5072790;28;20045;-70
2022/03/03 11:20:18;;;;;;;12.75;10.00;;;;;;;16.26;30.94;101737.59;5072120;28;20068;-70
2022/03/03 11:22:46;;;;;;;15.35;9.93;;;;;;;16.29;30.67;101737.34;5072393;28;20059;-70
2022/03/03 11:25:16;;;;;;;15.00;9.18;;;;;;;16.36;30.94;101746.75;5072296;28;20084;-70
2022/03/03 11:27:47;;;;;;;13.63;10.18;;;;;;;16.45;30.94;101743.28;5072105;28;20070;-70